createdAt,value
2023-03-30T00:01:12.653Z,72.19
2023-03-30T00:03:40.144Z,72.98
2023-03-30T00:06:09.249Z,71.72
2023-03-30T00:08:38.161Z,71.70
2023-03-30T00:11:09.463Z,71.93
2023-03-30T00:13:38.633Z,71.86
2023-03-30T00:16:08.551Z,72.15
2023-03-30T00:18:39.793Z,72.94
2023-03-30T00:21:12.918Z,73.30
2023-03-30T00:23:42.495Z,73.70
2023-03-30T00:26:10.077Z,73.89
2023-03-30T00:28:37.629Z,73.93
2023-03-30T00:31:05.237Z,74.23
2023-03-30T00:33:44.832Z,74.73
2023-03-30T00:36:15.053Z,74.69
2023-03-30T00:38:42.727Z,75.08
2023-03-30T00:41:10.258Z,74.56
2023-03-30T00:43:59.089Z,75.16
2023-03-30T00:46:27.179Z,75.50
2023-03-30T00:49:05.580Z,75.47
2023-03-30T00:51:40.827Z,75.67
2023-03-30T00:54:13.789Z,75.71
2023-03-30T00:56:41.406Z,76.20
2023-03-30T00:59:10.662Z,76.05
2023-03-30T01:01:40.965Z,76.73
2023-03-30T01:04:10.289Z,77.01
2023-03-30T01:06:41.058Z,77.04
2023-03-30T01:09:08.984Z,77.37
2023-03-30T01:11:36.890Z,77.48
2023-03-30T01:14:08.557Z,77.85
2023-03-30T01:17:01.933Z,77.84
2023-03-30T01:20:26.809Z,78.12
2023-03-30T01:23:27.525Z,78.30
2023-03-30T01:26:21.058Z,78.15
2023-03-30T01:29:25.318Z,78.65
2023-03-30T01:32:26.685Z,79.31
2023-03-30T01:35:17.038Z,79.03
2023-03-30T01:38:02.632Z,79.76
2023-03-30T01:40:33.767Z,80.21
2023-03-30T01:43:21.082Z,80.56
2023-03-30T01:46:03.559Z,80.43
2023-03-30T01:48:59.507Z,81.06
2023-03-30T01:52:16.675Z,80.42
2023-03-30T01:55:03.158Z,80.21
2023-03-30T01:57:48.340Z,80.11
2023-03-30T02:00:20.728Z,79.66
2023-03-30T02:03:20.190Z,79.77
2023-03-30T02:05:51.846Z,80.25
2023-03-30T02:08:25.355Z,80.66
2023-03-30T02:10:55.360Z,80.93
2023-03-30T02:13:23.983Z,81.58
2023-03-30T02:15:58.149Z,81.41
2023-03-30T02:18:27.854Z,80.53
2023-03-30T02:20:59.148Z,80.33
2023-03-30T02:23:34.061Z,81.28
2023-03-30T02:26:02.295Z,81.34
2023-03-30T02:28:31.026Z,80.72
2023-03-30T02:30:58.674Z,81.19
2023-03-30T02:33:42.896Z,81.69
2023-03-30T02:36:37.780Z,81.83
2023-03-30T02:39:07.963Z,82.19
2023-03-30T02:42:16.996Z,82.78
2023-03-30T02:45:32.381Z,82.97
2023-03-30T02:48:42.791Z,82.76
2023-03-30T02:51:39.560Z,82.52
2023-03-30T02:54:23.398Z,82.03
2023-03-30T02:57:16.641Z,81.96
2023-03-30T03:00:00.206Z,82.07
2023-03-30T03:02:35.841Z,81.71
2023-03-30T03:05:04.445Z,82.64
2023-03-30T03:07:34.178Z,82.85
2023-03-30T03:10:01.680Z,82.22
2023-03-30T03:12:30.026Z,82.21
2023-03-30T03:14:58.126Z,81.19
2023-03-30T03:17:29.834Z,80.90
2023-03-30T03:19:58.027Z,81.07
2023-03-30T03:22:26.506Z,80.64
2023-03-30T03:24:56.209Z,80.92
2023-03-30T03:27:24.067Z,80.38
2023-03-30T03:29:51.431Z,79.98
2023-03-30T03:32:18.858Z,80.59
2023-03-30T03:34:46.350Z,80.46
2023-03-30T03:37:21.101Z,80.76
2023-03-30T03:39:48.421Z,80.71
2023-03-30T03:42:15.982Z,81.01
2023-03-30T03:44:43.309Z,80.86
2023-03-30T03:47:16.015Z,81.32
2023-03-30T03:49:49.979Z,81.19
2023-03-30T03:52:17.679Z,81.24
2023-03-30T03:54:44.912Z,81.64
2023-03-30T03:57:12.368Z,81.74
2023-03-30T03:59:39.945Z,81.30
2023-03-30T04:02:07.076Z,81.48
2023-03-30T04:04:34.411Z,81.41
2023-03-30T04:07:03.712Z,82.15
2023-03-30T04:09:31.334Z,81.63
2023-03-30T04:11:58.829Z,81.84
2023-03-30T04:14:26.290Z,81.63
2023-03-30T04:16:53.581Z,82.06
2023-03-30T04:19:25.521Z,82.03
2023-03-30T04:21:53.270Z,82.75
2023-03-30T04:24:20.664Z,83.43
2023-03-30T04:26:49.166Z,82.85
2023-03-30T04:29:18.167Z,82.56
2023-03-30T04:31:51.146Z,83.40
2023-03-30T04:34:22.092Z,83.40
2023-03-30T04:36:49.472Z,83.44
2023-03-30T04:39:18.464Z,82.49
2023-03-30T04:41:46.317Z,82.59
2023-03-30T04:44:14.560Z,82.50
2023-03-30T04:46:42.375Z,82.36
2023-03-30T04:49:09.445Z,82.53
2023-03-30T04:51:37.721Z,82.79
2023-03-30T04:54:05.212Z,82.61
2023-03-30T04:56:32.437Z,81.92
2023-03-30T04:59:00.765Z,82.50
2023-03-30T05:01:28.704Z,82.38
2023-03-30T05:03:56.409Z,81.97
2023-03-30T05:06:24.687Z,82.69
2023-03-30T05:08:54.179Z,82.83
2023-03-30T05:11:21.616Z,81.00
2023-03-30T05:13:52.310Z,80.56
2023-03-30T05:16:19.831Z,80.23
2023-03-30T05:18:49.348Z,80.06
2023-03-30T05:21:26.686Z,79.95
2023-03-30T05:23:55.877Z,79.37
2023-03-30T05:26:24.203Z,78.00
2023-03-30T05:28:51.786Z,78.64
2023-03-30T05:31:20.072Z,78.39
2023-03-30T05:33:48.064Z,78.81
2023-03-30T05:36:15.323Z,78.86
2023-03-30T05:38:42.679Z,78.16
2023-03-30T05:41:10.184Z,78.44
2023-03-30T05:43:37.721Z,78.60
2023-03-30T05:46:07.069Z,78.67
2023-03-30T05:48:34.466Z,79.38
2023-03-30T05:51:02.544Z,79.40
2023-03-30T05:53:29.915Z,78.83
2023-03-30T05:55:57.513Z,78.76
2023-03-30T05:58:24.912Z,78.14
2023-03-30T06:00:52.949Z,77.95
2023-03-30T06:03:20.333Z,77.52
2023-03-30T06:05:48.307Z,77.51
2023-03-30T06:08:15.866Z,77.67
2023-03-30T06:10:53.234Z,77.60
2023-03-30T06:13:20.468Z,77.93
2023-03-30T06:15:48.046Z,77.45
2023-03-30T06:18:15.800Z,77.76
2023-03-30T06:20:48.068Z,78.36
2023-03-30T06:23:15.945Z,76.76
2023-03-30T06:25:46.762Z,76.60
2023-03-30T06:28:14.372Z,77.00
2023-03-30T06:30:42.732Z,76.41
2023-03-30T06:33:10.112Z,75.51
2023-03-30T06:35:38.043Z,75.26
2023-03-30T06:38:05.188Z,74.36
2023-03-30T06:40:32.563Z,73.29
2023-03-30T06:43:00.126Z,72.81
2023-03-30T06:45:28.109Z,72.82
2023-03-30T06:47:56.568Z,72.48
2023-03-30T06:50:24.214Z,71.67
2023-03-30T06:52:51.550Z,71.65
2023-03-30T06:55:18.850Z,71.21
2023-03-30T06:57:46.360Z,70.63
2023-03-30T07:00:16.295Z,70.51
2023-03-30T07:02:43.626Z,70.58
2023-03-30T07:05:15.971Z,70.16
2023-03-30T07:07:48.933Z,70.72
2023-03-30T07:10:16.554Z,69.64
2023-03-30T07:12:43.811Z,69.21
2023-03-30T07:15:11.689Z,69.21
2023-03-30T07:17:41.580Z,70.01
2023-03-30T07:20:11.127Z,69.86
2023-03-30T07:22:39.347Z,69.90
2023-03-30T07:25:07.356Z,69.94
2023-03-30T07:27:36.425Z,70.64
2023-03-30T07:30:17.856Z,70.40
2023-03-30T07:32:50.810Z,71.50
2023-03-30T07:35:19.648Z,70.63
2023-03-30T07:37:50.756Z,71.24
2023-03-30T07:40:19.936Z,71.25
2023-03-30T07:42:48.092Z,71.25
2023-03-30T07:45:16.640Z,72.10
2023-03-30T07:47:44.245Z,72.13
2023-03-30T07:50:11.743Z,72.95
2023-03-30T07:52:45.549Z,71.95
2023-03-30T07:55:13.501Z,71.37
2023-03-30T07:57:40.958Z,71.28
2023-03-30T08:00:10.785Z,70.59
2023-03-30T08:02:38.289Z,70.66
2023-03-30T08:05:06.943Z,70.32
2023-03-30T08:07:35.788Z,69.71
2023-03-30T08:10:04.543Z,69.18
2023-03-30T08:12:32.078Z,69.04
2023-03-30T08:14:59.485Z,68.50
2023-03-30T08:17:27.141Z,68.51
2023-03-30T08:19:56.470Z,68.54
2023-03-30T08:22:29.994Z,68.58
2023-03-30T08:25:04.195Z,68.33
2023-03-30T08:27:31.834Z,67.98
2023-03-30T08:30:01.297Z,67.91
2023-03-30T08:32:28.589Z,68.23
2023-03-30T08:34:55.952Z,67.40
2023-03-30T08:37:23.556Z,67.52
2023-03-30T08:39:54.017Z,67.71
2023-03-30T08:42:58.613Z,67.81
2023-03-30T08:45:26.844Z,68.35
2023-03-30T08:47:55.009Z,68.22
2023-03-30T08:50:38.111Z,67.51
2023-03-30T08:53:07.602Z,67.52
2023-03-30T08:55:54.287Z,66.63
2023-03-30T08:58:55.244Z,65.77
2023-03-30T09:01:59.649Z,66.53
2023-03-30T09:04:39.837Z,66.50
2023-03-30T09:07:29.188Z,66.99
2023-03-30T09:09:57.808Z,65.66
2023-03-30T09:12:48.476Z,65.72
2023-03-30T09:15:17.664Z,65.80
2023-03-30T09:18:08.079Z,65.42
2023-03-30T09:20:39.135Z,64.58
2023-03-30T09:23:13.885Z,65.44
2023-03-30T09:26:07.004Z,63.10
2023-03-30T09:28:48.586Z,63.36
2023-03-30T09:31:36.370Z,63.69
2023-03-30T09:34:29.698Z,62.71
2023-03-30T09:37:10.352Z,63.28
2023-03-30T09:39:39.172Z,63.42
2023-03-30T09:42:19.028Z,63.75
2023-03-30T09:44:55.951Z,63.58
2023-03-30T09:47:29.158Z,63.62
2023-03-30T09:50:06.192Z,62.64
2023-03-30T09:52:39.174Z,60.54
2023-03-30T09:55:21.941Z,60.12
2023-03-30T09:57:53.849Z,59.83
2023-03-30T10:00:34.533Z,60.98
2023-03-30T10:03:07.180Z,59.23
2023-03-30T10:05:36.936Z,59.03
2023-03-30T10:08:18.014Z,59.24
2023-03-30T10:10:45.648Z,59.97
2023-03-30T10:13:16.798Z,59.21
2023-03-30T10:15:50.211Z,57.91
2023-03-30T10:18:38.454Z,57.97
2023-03-30T10:21:23.128Z,56.67
2023-03-30T10:24:04.833Z,57.77
2023-03-30T10:26:34.908Z,57.60
2023-03-30T10:29:08.230Z,58.01
2023-03-30T10:31:38.060Z,58.72
2023-03-30T10:34:14.962Z,58.03
2023-03-30T10:36:42.234Z,58.12
2023-03-30T10:39:18.197Z,58.38
2023-03-30T10:41:49.052Z,58.88
2023-03-30T10:44:36.157Z,59.33
2023-03-30T10:47:18.019Z,60.03
2023-03-30T10:49:53.433Z,59.40
2023-03-30T10:52:52.000Z,60.49
2023-03-30T10:55:31.855Z,59.53
2023-03-30T10:58:37.355Z,59.28
2023-03-30T11:01:18.776Z,59.54
2023-03-30T11:03:52.356Z,59.66
2023-03-30T11:06:28.802Z,60.70
2023-03-30T11:09:06.334Z,60.58
2023-03-30T11:11:51.640Z,60.65
2023-03-30T11:14:55.674Z,60.14
2023-03-30T11:17:54.554Z,59.28
2023-03-30T11:20:47.773Z,59.32
2023-03-30T11:23:55.705Z,59.46
2023-03-30T11:26:43.389Z,58.26
2023-03-30T11:29:27.344Z,56.90
2023-03-30T11:32:17.606Z,56.19
2023-03-30T11:35:05.908Z,55.75
2023-03-30T11:37:48.694Z,55.96
2023-03-30T11:40:47.237Z,54.74
2023-03-30T11:43:18.067Z,54.76
2023-03-30T11:46:05.454Z,55.07
2023-03-30T11:49:05.907Z,56.04
2023-03-30T11:51:54.347Z,56.32
2023-03-30T11:55:01.788Z,55.52
2023-03-30T11:57:51.681Z,56.42
2023-03-30T12:00:41.364Z,56.91
2023-03-30T12:03:40.408Z,57.83
2023-03-30T12:06:28.619Z,58.53
2023-03-30T12:09:05.355Z,58.88
2023-03-30T12:11:51.081Z,58.78
2023-03-30T12:14:47.511Z,58.73
2023-03-30T12:17:33.689Z,59.16
2023-03-30T12:20:09.771Z,59.37
2023-03-30T12:23:01.611Z,59.01
2023-03-30T12:25:45.395Z,58.52
2023-03-30T12:28:17.047Z,59.38
2023-03-30T12:30:56.769Z,58.94
2023-03-30T12:33:36.707Z,59.27
2023-03-30T12:36:40.228Z,59.40
2023-03-30T12:39:49.491Z,59.78
2023-03-30T12:42:37.870Z,60.10
2023-03-30T12:45:22.198Z,60.80
2023-03-30T12:48:08.001Z,61.05
2023-03-30T12:50:59.811Z,60.74
2023-03-30T12:53:58.746Z,60.83
2023-03-30T12:56:37.246Z,62.25
2023-03-30T12:59:15.841Z,61.93
2023-03-30T13:02:12.112Z,62.66
2023-03-30T13:04:44.061Z,63.43
2023-03-30T13:07:22.314Z,64.52
2023-03-30T13:09:59.744Z,64.74
2023-03-30T13:12:31.579Z,65.80
2023-03-30T13:15:03.185Z,68.48
2023-03-30T13:18:01.734Z,72.98
2023-03-30T13:20:56.320Z,75.70
2023-03-30T13:23:23.769Z,77.26
2023-03-30T13:26:09.319Z,81.16
2023-03-30T13:28:57.514Z,86.59
2023-03-30T13:32:02.498Z,89.99
2023-03-30T13:34:51.454Z,94.18
2023-03-30T13:38:07.613Z,97.42
2023-03-30T13:40:48.787Z,100.00
2023-03-30T13:43:50.911Z,100.00
2023-03-30T13:46:28.297Z,100.00
2023-03-30T13:49:19.045Z,100.00
2023-03-30T13:51:47.854Z,100.00
2023-03-30T13:54:22.176Z,100.00
2023-03-30T13:56:57.852Z,100.00
2023-03-30T13:59:32.144Z,100.00
2023-03-30T14:02:01.755Z,100.00
2023-03-30T14:04:39.361Z,100.00
2023-03-30T14:07:19.542Z,100.00
2023-03-30T14:10:12.902Z,100.00
2023-03-30T14:12:42.021Z,100.00
2023-03-30T14:15:38.077Z,100.00
2023-03-30T14:18:05.899Z,100.00
2023-03-30T14:21:15.934Z,100.00
2023-03-30T14:23:51.227Z,100.00
2023-03-30T14:26:29.641Z,100.00
2023-03-30T14:29:10.775Z,100.00
2023-03-30T14:31:40.269Z,100.00
2023-03-30T14:34:34.325Z,100.00
2023-03-30T14:37:12.436Z,100.00
2023-03-30T14:39:50.135Z,100.00
2023-03-30T14:42:24.883Z,100.00
2023-03-30T14:44:55.888Z,100.00
2023-03-30T14:47:30.098Z,100.00
2023-03-30T14:50:01.705Z,100.00
2023-03-30T14:52:38.185Z,100.00
2023-03-30T14:55:18.261Z,100.00
2023-03-30T14:57:47.320Z,100.00
2023-03-30T15:00:20.639Z,100.00
2023-03-30T15:02:58.980Z,100.00
2023-03-30T15:05:32.825Z,100.00
2023-03-30T15:08:02.479Z,100.00
2023-03-30T15:10:44.485Z,100.00
2023-03-30T15:13:28.457Z,100.00
2023-03-30T15:15:57.228Z,100.00
2023-03-30T15:18:27.421Z,100.00
2023-03-30T15:20:56.897Z,100.00
2023-03-30T15:23:26.372Z,100.00
2023-03-30T15:25:57.648Z,100.00
2023-03-30T15:28:25.341Z,100.00
2023-03-30T15:30:54.013Z,100.00
2023-03-30T15:33:36.517Z,100.00
2023-03-30T15:36:18.638Z,100.00
2023-03-30T15:38:59.049Z,100.00
2023-03-30T15:42:01.750Z,100.00
2023-03-30T15:44:37.926Z,100.00
2023-03-30T15:47:20.099Z,100.00
2023-03-30T15:49:52.014Z,100.00
2023-03-30T15:52:43.524Z,100.00
2023-03-30T15:55:21.558Z,100.00
2023-03-30T15:57:52.459Z,100.00
2023-03-30T16:00:27.535Z,100.00
2023-03-30T16:03:00.561Z,100.00
2023-03-30T16:05:34.278Z,100.00
2023-03-30T16:08:02.949Z,100.00
2023-03-30T16:10:34.002Z,100.00
2023-03-30T16:13:02.471Z,100.00
2023-03-30T16:15:33.257Z,100.00
2023-03-30T16:18:01.439Z,100.00
2023-03-30T16:20:32.233Z,100.00
2023-03-30T16:23:00.074Z,100.00
2023-03-30T16:28:01.197Z,100.00
2023-03-30T16:30:34.894Z,100.00
2023-03-30T16:33:03.196Z,100.00
2023-03-30T16:35:32.678Z,100.00
2023-03-30T16:38:06.450Z,100.00
2023-03-30T16:40:43.151Z,100.00
2023-03-30T16:43:13.256Z,100.00
2023-03-30T16:45:42.123Z,100.00
2023-03-30T16:48:15.471Z,100.00
2023-03-30T16:50:45.754Z,100.00
2023-03-30T16:53:14.661Z,100.00
2023-03-30T16:55:45.954Z,100.00
2023-03-30T16:58:15.808Z,100.00
2023-03-30T17:00:50.127Z,100.00
2023-03-30T17:03:19.086Z,100.00
2023-03-30T17:05:49.239Z,100.00
2023-03-30T17:08:23.849Z,100.00
2023-03-30T17:10:53.830Z,100.00
2023-03-30T17:13:22.427Z,100.00
2023-03-30T17:15:50.097Z,100.00
2023-03-30T17:18:26.304Z,100.00
2023-03-30T17:20:56.679Z,100.00
2023-03-30T17:23:36.967Z,100.00
2023-03-30T17:26:05.657Z,100.00
2023-03-30T17:28:35.901Z,100.00
2023-03-30T17:31:09.163Z,100.00
2023-03-30T17:33:38.510Z,100.00
2023-03-30T17:36:27.195Z,100.00
2023-03-30T17:38:56.818Z,100.00
2023-03-30T17:41:25.089Z,100.00
2023-03-30T17:43:55.724Z,100.00
2023-03-30T17:46:24.154Z,100.00
2023-03-30T17:48:52.802Z,100.00
2023-03-30T17:51:21.360Z,100.00
2023-03-30T17:53:49.347Z,100.00
2023-03-30T17:56:31.908Z,100.00
2023-03-30T17:59:00.612Z,100.00
2023-03-30T18:01:28.619Z,100.00
2023-03-30T18:03:57.260Z,100.00
2023-03-30T18:06:27.072Z,100.00
2023-03-30T18:08:56.084Z,100.00
2023-03-30T18:11:24.375Z,100.00
2023-03-30T18:13:53.952Z,100.00
2023-03-30T18:16:25.919Z,100.00
2023-03-30T18:18:57.932Z,100.00
2023-03-30T18:21:27.104Z,100.00
2023-03-30T18:23:55.508Z,100.00
2023-03-30T18:26:23.789Z,100.00
2023-03-30T18:28:51.950Z,100.00
2023-03-30T18:31:23.113Z,100.00
2023-03-30T18:33:55.806Z,100.00
2023-03-30T18:36:25.005Z,100.00
2023-03-30T18:38:55.862Z,100.00
2023-03-30T18:41:23.881Z,100.00
2023-03-30T18:43:53.174Z,100.00
2023-03-30T18:46:23.842Z,100.00
2023-03-30T18:48:52.064Z,100.00
2023-03-30T18:51:22.360Z,100.00
2023-03-30T18:53:50.425Z,100.00
2023-03-30T18:56:18.921Z,100.00
2023-03-30T18:58:49.230Z,100.00
2023-03-30T19:01:18.310Z,100.00
2023-03-30T19:03:47.427Z,100.00
2023-03-30T19:06:22.838Z,100.00
2023-03-30T19:08:52.012Z,100.00
2023-03-30T19:11:28.343Z,100.00
2023-03-30T19:13:57.274Z,100.00
2023-03-30T19:16:26.130Z,100.00
2023-03-30T19:18:56.198Z,100.00
2023-03-30T19:21:26.242Z,100.00
2023-03-30T19:23:57.473Z,100.00
2023-03-30T19:26:26.788Z,100.00
2023-03-30T19:28:55.069Z,100.00
2023-03-30T19:31:23.772Z,100.00
2023-03-30T19:33:52.445Z,100.00
2023-03-30T19:36:24.035Z,100.00
2023-03-30T19:38:56.778Z,100.00
2023-03-30T19:41:32.749Z,100.00
2023-03-30T19:44:02.345Z,100.00
2023-03-30T19:46:38.650Z,100.00
2023-03-30T19:49:07.922Z,100.00
2023-03-30T19:51:36.527Z,100.00
2023-03-30T19:54:11.254Z,100.00
2023-03-30T19:56:40.178Z,100.00
2023-03-30T19:59:09.969Z,100.00
2023-03-30T20:01:38.685Z,100.00
2023-03-30T20:04:13.571Z,100.00
2023-03-30T20:06:41.615Z,100.00
2023-03-30T20:09:10.036Z,100.00
2023-03-30T20:11:37.960Z,100.00
2023-03-30T20:14:07.782Z,100.00
2023-03-30T20:16:35.917Z,100.00
2023-03-30T20:19:15.945Z,100.00
2023-03-30T20:21:50.035Z,100.00
2023-03-30T20:24:17.778Z,100.00
2023-03-30T20:26:47.058Z,100.00
2023-03-30T20:29:14.781Z,100.00
2023-03-30T20:31:42.948Z,100.00
2023-03-30T20:34:13.069Z,100.00
2023-03-30T20:36:40.800Z,100.00
2023-03-30T20:39:10.206Z,100.00
2023-03-30T20:41:40.559Z,100.00
2023-03-30T20:44:11.752Z,100.00
2023-03-30T20:46:40.413Z,100.00
2023-03-30T20:49:10.361Z,100.00
2023-03-30T20:51:39.929Z,100.00
2023-03-30T20:54:07.528Z,100.00
2023-03-30T20:56:34.931Z,100.00
2023-03-30T20:59:02.603Z,100.00
2023-03-30T21:01:32.060Z,100.00
2023-03-30T21:04:02.649Z,100.00
2023-03-30T21:06:34.104Z,100.00
2023-03-30T21:09:06.223Z,100.00
2023-03-30T21:11:39.040Z,100.00
2023-03-30T21:14:08.930Z,100.00
2023-03-30T21:16:38.208Z,100.00
2023-03-30T21:19:06.135Z,100.00
2023-03-30T21:21:35.184Z,100.00
2023-03-30T21:24:07.513Z,100.00
2023-03-30T21:26:35.842Z,100.00
2023-03-30T21:29:09.309Z,100.00
2023-03-30T21:31:36.753Z,100.00
2023-03-30T21:34:04.567Z,100.00
2023-03-30T21:36:32.230Z,100.00
2023-03-30T21:39:01.152Z,100.00
2023-03-30T21:41:30.804Z,100.00
2023-03-30T21:44:10.526Z,100.00
2023-03-30T21:46:37.909Z,100.00
2023-03-30T21:49:05.318Z,100.00
2023-03-30T21:51:32.883Z,100.00
2023-03-30T21:54:00.339Z,100.00
2023-03-30T21:56:29.966Z,100.00
2023-03-30T21:58:58.331Z,100.00
2023-03-30T22:01:31.807Z,100.00
2023-03-30T22:03:59.510Z,100.00
2023-03-30T22:06:28.784Z,100.00
2023-03-30T22:08:56.397Z,100.00
2023-03-30T22:11:26.442Z,100.00
2023-03-30T22:13:55.747Z,100.00
2023-03-30T22:16:38.005Z,100.00
2023-03-30T22:19:05.593Z,100.00
2023-03-30T22:21:35.826Z,100.00
2023-03-30T22:24:07.630Z,100.00
2023-03-30T22:26:36.534Z,100.00
2023-03-30T22:29:05.334Z,100.00
2023-03-30T22:31:33.905Z,100.00
2023-03-30T22:34:01.730Z,100.00
2023-03-30T22:36:31.286Z,100.00
2023-03-30T22:39:05.619Z,100.00
2023-03-30T22:41:35.732Z,100.00
2023-03-30T22:44:05.211Z,100.00
2023-03-30T22:46:35.114Z,100.00
2023-03-30T22:49:14.545Z,100.00
2023-03-30T22:51:53.019Z,100.00
2023-03-30T22:54:22.718Z,100.00
2023-03-30T22:56:51.292Z,100.00
2023-03-30T22:59:20.616Z,100.00
2023-03-30T23:01:48.097Z,100.00
2023-03-30T23:04:17.377Z,100.00
2023-03-30T23:06:51.744Z,100.00
2023-03-30T23:09:23.336Z,100.00
2023-03-30T23:11:51.549Z,100.00
2023-03-30T23:14:18.653Z,100.00
2023-03-30T23:16:46.526Z,100.00
2023-03-30T23:19:15.113Z,100.00
2023-03-30T23:21:44.916Z,100.00
2023-03-30T23:24:12.245Z,100.00
2023-03-30T23:26:45.663Z,100.00
2023-03-30T23:29:13.614Z,100.00
2023-03-30T23:31:42.200Z,100.00
2023-03-30T23:34:13.282Z,100.00
2023-03-30T23:36:49.934Z,100.00
2023-03-30T23:39:20.416Z,100.00
2023-03-30T23:41:47.714Z,100.00
2023-03-30T23:44:15.274Z,100.00
2023-03-30T23:46:43.061Z,100.00
2023-03-30T23:49:11.846Z,100.00
2023-03-30T23:51:40.262Z,100.00
2023-03-30T23:54:08.687Z,100.00
2023-03-30T23:56:38.029Z,100.00
2023-03-30T23:59:09.530Z,100.00
